This is the latest recevied weather packets stored in our database for station/object W4KBW. If no packets are shown the sender has not sent any weather packets the latest 1 day(s).
| Time | Temp. | Humidity | Pressure | Rain* | Wind** | Luminosity | Snow |
|---|---|---|---|---|---|---|---|
| 1778004053 | 30° C | 100% | 1014.9 hPa | 0 mm | 0 m/s | - | - |
| 1778003172 | 30.56° C | 100% | 1015 hPa | 0 mm | 0.45 m/s, 58° | - | - |
| 1778003123 | 30.56° C | 100% | 1015 hPa | 0 mm | 0.45 m/s, 58° | - | - |
| 1778002193 | 30° C | 100% | 1015.2 hPa | 0 mm | 0.45 m/s, 19° | - | - |
| 1778001327 | 30° C | 100% | 1015.3 hPa | 0 mm | 0.45 m/s, 39° | - | - |
| 1778001293 | 30° C | 100% | 1015.3 hPa | 0 mm | 0.45 m/s, 39° | - | - |
| 1778000495 | 30° C | 100% | 1015.3 hPa | 0 mm | 0.89 m/s, 131° | - | - |
| 1778000363 | 30° C | 100% | 1015.3 hPa | 0 mm | 0.89 m/s, 131° | - | - |
| 1777999553 | 30° C | 100% | 1015.4 hPa | 0 mm | 0.45 m/s, 103° | - | - |
| 1777999509 | 30° C | 100% | 1015.4 hPa | 0 mm | 0.45 m/s, 103° | - | - |
| 1777999463 | 30° C | 100% | 1015.4 hPa | 0 mm | 0.45 m/s, 103° | - | - |
| 1777998617 | 30° C | 100% | 1015.4 hPa | 0 mm | 0 m/s | - | - |
| 1777998533 | 30° C | 100% | 1015.4 hPa | 0 mm | 0 m/s | - | - |
| 1777997724 | 29.44° C | 100% | 1015.3 hPa | 0 mm | 0.89 m/s, 94° | - | - |
| 1777997603 | 29.44° C | 100% | 1015.3 hPa | 0 mm | 0.89 m/s, 94° | - | - |
| 1777996811 | 28.33° C | 100% | 1015.4 hPa | 0 mm | 0.45 m/s, 58° | - | - |
| 1777996703 | 28.33° C | 100% | 1015.4 hPa | 0 mm | 0.45 m/s, 58° | - | - |
| 1777995827 | 28.89° C | 100% | 1015.4 hPa | 0 mm | 1.34 m/s, 72° | - | - |
| 1777995773 | 28.89° C | 100% | 1015.4 hPa | 0 mm | 1.34 m/s, 72° | - | - |
| 1777994921 | 27.78° C | 100% | 1015.4 hPa | 0 mm | 0.89 m/s, 68° | - | - |
| 1777994843 | 27.78° C | 100% | 1015.4 hPa | 0 mm | 0.89 m/s, 68° | - | - |
| 1777993913 | 27.78° C | 100% | 1015.4 hPa | 0 mm | 1.34 m/s, 79° | - | - |
| 1777993194 | 28.33° C | 100% | 1015.4 hPa | 0 mm | 1.79 m/s, 67° | - | - |
| 1777993013 | 28.33° C | 100% | 1015.4 hPa | 0 mm | 1.79 m/s, 67° | - | - |
| 1777992306 | 27.78° C | 100% | 1015.4 hPa | 0 mm | 1.34 m/s, 80° | - | - |
* Rain latest hour (hover to see other rain measurements)
** Current wind speed in m/s (hover to see current wind gust speed)